CheckWX is a tool to help pilots better visualize weather data.  It is not intended as a substitute for an official pre-flight weather briefing.

19:55:34 UTC

EGSH TAF
Norwich International Airport
Norwich, United Kingdom
TAF AMD EGSH 251927Z 2519/2524 34008KT 9999 SCT007 PROB30 TEMPO 2519/2524 3000 BR BKN002

Jun-25@
19:00 UTC

Jun-25 @ 19:00 UTC

Jun-26@
00:00 UTC

Jun-26 @ 00:00 UTC

TAF AMD EGSH 251927Z 2519/2524 34008KT 9999 SCT007
Wind
  • 340° at 8 KTS
Cloud Levels
  • Scattered at 700' AGL

Jun-25@
19:00 UTC

Jun-25 @ 19:00 UTC

Jun-26@
00:00 UTC

Jun-26 @ 00:00 UTC

PROB30 TEMPO 2519/2524 3000 BR BKN002

Temporary - 30% Likelihood

Temporary - 30% Likelihood during this time.

Conditions
Mist
Cloud Levels
  • Broken at 200' AGL